sensor_id;sensor_type;location;lat;lon;timestamp;pressure;altitude;pressure_sealevel;temperature;humidity
19210;BME280;9738;51.654;14.238;2023-04-06T00:01:39;101069.31;;;-1.03;100.00
19210;BME280;9738;51.654;14.238;2023-04-06T00:04:05;101073.00;;;-1.07;100.00
19210;BME280;9738;51.654;14.238;2023-04-06T00:06:32;101072.16;;;-1.08;100.00
19210;BME280;9738;51.654;14.238;2023-04-06T00:09:00;101066.03;;;-1.09;100.00
19210;BME280;9738;51.654;14.238;2023-04-06T00:11:26;101065.16;;;-1.09;100.00
19210;BME280;9738;51.654;14.238;2023-04-06T00:13:52;101068.72;;;-1.10;100.00
19210;BME280;9738;51.654;14.238;2023-04-06T00:16:20;101073.97;;;-1.10;100.00
19210;BME280;9738;51.654;14.238;2023-04-06T00:18:45;101070.47;;;-1.11;100.00
19210;BME280;9738;51.654;14.238;2023-04-06T00:21:12;101072.19;;;-1.10;100.00
19210;BME280;9738;51.654;14.238;2023-04-06T00:23:39;101072.19;;;-1.10;100.00
19210;BME280;9738;51.654;14.238;2023-04-06T00:26:05;101069.56;;;-1.10;100.00
19210;BME280;9738;51.654;14.238;2023-04-06T00:28:31;101060.84;;;-1.10;100.00
19210;BME280;9738;51.654;14.238;2023-04-06T00:30:57;101070.41;;;-1.09;100.00
19210;BME280;9738;51.654;14.238;2023-04-06T00:33:23;101067.75;;;-1.07;100.00
19210;BME280;9738;51.654;14.238;2023-04-06T00:35:49;101070.38;;;-1.07;100.00
19210;BME280;9738;51.654;14.238;2023-04-06T00:38:16;101064.88;;;-1.01;100.00
19210;BME280;9738;51.654;14.238;2023-04-06T00:40:42;101060.16;;;-0.93;100.00
19210;BME280;9738;51.654;14.238;2023-04-06T00:43:11;101054.59;;;-0.86;100.00
19210;BME280;9738;51.654;14.238;2023-04-06T00:45:39;101049.97;;;-0.79;100.00
19210;BME280;9738;51.654;14.238;2023-04-06T00:48:05;101044.53;;;-0.74;100.00
19210;BME280;9738;51.654;14.238;2023-04-06T00:50:31;101048.78;;;-0.72;100.00
19210;BME280;9738;51.654;14.238;2023-04-06T00:52:58;101044.19;;;-0.67;100.00
19210;BME280;9738;51.654;14.238;2023-04-06T00:55:26;101052.84;;;-0.65;100.00
19210;BME280;9738;51.654;14.238;2023-04-06T00:57:52;101043.34;;;-0.67;100.00
19210;BME280;9738;51.654;14.238;2023-04-06T01:00:18;101053.91;;;-0.69;100.00
19210;BME280;9738;51.654;14.238;2023-04-06T01:02:44;101049.69;;;-0.73;100.00
19210;BME280;9738;51.654;14.238;2023-04-06T01:05:13;101049.84;;;-0.76;100.00
19210;BME280;9738;51.654;14.238;2023-04-06T01:07:39;101058.59;;;-0.77;100.00
19210;BME280;9738;51.654;14.238;2023-04-06T01:10:05;101048.19;;;-0.78;100.00
19210;BME280;9738;51.654;14.238;2023-04-06T01:12:31;101056.91;;;-0.78;100.00
19210;BME280;9738;51.654;14.238;2023-04-06T01:14:59;101045.56;;;-0.78;100.00
19210;BME280;9738;51.654;14.238;2023-04-06T01:17:25;101049.09;;;-0.79;100.00
19210;BME280;9738;51.654;14.238;2023-04-06T01:19:51;101047.34;;;-0.79;100.00
19210;BME280;9738;51.654;14.238;2023-04-06T01:22:20;101047.22;;;-0.76;100.00
19210;BME280;9738;51.654;14.238;2023-04-06T01:24:46;101044.59;;;-0.76;100.00
19210;BME280;9738;51.654;14.238;2023-04-06T01:27:12;101052.47;;;-0.76;100.00
19210;BME280;9738;51.654;14.238;2023-04-06T01:29:39;101049.03;;;-0.78;100.00
19210;BME280;9738;51.654;14.238;2023-04-06T01:32:07;101050.81;;;-0.78;100.00
19210;BME280;9738;51.654;14.238;2023-04-06T01:34:33;101053.50;;;-0.80;100.00
19210;BME280;9738;51.654;14.238;2023-04-06T01:36:59;101046.56;;;-0.81;100.00
19210;BME280;9738;51.654;14.238;2023-04-06T01:39:25;101045.72;;;-0.82;100.00
19210;BME280;9738;51.654;14.238;2023-04-06T01:41:51;101047.41;;;-0.80;100.00
19210;BME280;9738;51.654;14.238;2023-04-06T01:44:17;101041.31;;;-0.81;100.00
19210;BME280;9738;51.654;14.238;2023-04-06T01:46:44;101045.72;;;-0.82;100.00
19210;BME280;9738;51.654;14.238;2023-04-06T01:49:11;101050.03;;;-0.80;100.00
19210;BME280;9738;51.654;14.238;2023-04-06T01:51:38;101049.25;;;-0.83;100.00
19210;BME280;9738;51.654;14.238;2023-04-06T01:54:04;101046.56;;;-0.81;100.00
19210;BME280;9738;51.654;14.238;2023-04-06T01:56:29;101040.31;;;-0.78;100.00
19210;BME280;9738;51.654;14.238;2023-04-06T01:58:56;101034.03;;;-0.74;100.00
19210;BME280;9738;51.654;14.238;2023-04-06T02:01:22;101043.59;;;-0.73;100.00
19210;BME280;9738;51.654;14.238;2023-04-06T02:03:48;101037.50;;;-0.74;100.00
19210;BME280;9738;51.654;14.238;2023-04-06T02:06:14;101031.41;;;-0.74;100.00
19210;BME280;9738;51.654;14.238;2023-04-06T02:08:40;101042.03;;;-0.77;100.00
19210;BME280;9738;51.654;14.238;2023-04-06T02:11:05;101036.06;;;-0.81;100.00
19210;BME280;9738;51.654;14.238;2023-04-06T02:13:32;101036.13;;;-0.83;100.00
19210;BME280;9738;51.654;14.238;2023-04-06T02:15:58;101036.00;;;-0.79;100.00
19210;BME280;9738;51.654;14.238;2023-04-06T02:18:24;101028.88;;;-0.76;100.00
19210;BME280;9738;51.654;14.238;2023-04-06T02:20:50;101033.13;;;-0.73;100.00
19210;BME280;9738;51.654;14.238;2023-04-06T02:23:16;101033.97;;;-0.73;100.00
19210;BME280;9738;51.654;14.238;2023-04-06T02:25:42;101034.09;;;-0.76;100.00
19210;BME280;9738;51.654;14.238;2023-04-06T02:28:08;101030.75;;;-0.79;100.00
19210;BME280;9738;51.654;14.238;2023-04-06T02:30:34;101032.72;;;-0.85;100.00
19210;BME280;9738;51.654;14.238;2023-04-06T02:33:00;101031.94;;;-0.87;100.00
19210;BME280;9738;51.654;14.238;2023-04-06T02:35:30;101025.69;;;-0.84;100.00
19210;BME280;9738;51.654;14.238;2023-04-06T02:37:56;101030.69;;;-0.78;100.00
19210;BME280;9738;51.654;14.238;2023-04-06T02:40:22;101023.63;;;-0.76;100.00
19210;BME280;9738;51.654;14.238;2023-04-06T02:42:48;101015.69;;;-0.74;100.00
19210;BME280;9738;51.654;14.238;2023-04-06T02:45:14;101019.06;;;-0.72;100.00
19210;BME280;9738;51.654;14.238;2023-04-06T02:47:41;101027.00;;;-0.74;100.00
19210;BME280;9738;51.654;14.238;2023-04-06T02:50:08;101034.09;;;-0.76;100.00
19210;BME280;9738;51.654;14.238;2023-04-06T02:52:33;101030.00;;;-0.83;100.00
19210;BME280;9738;51.654;14.238;2023-04-06T02:54:59;101038.94;;;-0.87;100.00
19210;BME280;9738;51.654;14.238;2023-04-06T02:57:26;101033.03;;;-0.92;100.00
19210;BME280;9738;51.654;14.238;2023-04-06T02:59:51;101032.25;;;-0.94;100.00
19210;BME280;9738;51.654;14.238;2023-04-06T03:02:17;101038.53;;;-0.98;100.00
19210;BME280;9738;51.654;14.238;2023-04-06T03:04:44;101036.94;;;-1.02;100.00
19210;BME280;9738;51.654;14.238;2023-04-06T03:07:10;101048.34;;;-1.03;100.00
19210;BME280;9738;51.654;14.238;2023-04-06T03:09:37;101038.00;;;-1.06;100.00
19210;BME280;9738;51.654;14.238;2023-04-06T03:12:04;101052.06;;;-1.09;100.00
19210;BME280;9738;51.654;14.238;2023-04-06T03:14:30;101047.03;;;-1.14;100.00
19210;BME280;9738;51.654;14.238;2023-04-06T03:16:56;101053.31;;;-1.18;100.00
19210;BME280;9738;51.654;14.238;2023-04-06T03:19:22;101055.13;;;-1.20;100.00
19210;BME280;9738;51.654;14.238;2023-04-06T03:21:48;101043.06;;;-1.24;100.00
19210;BME280;9738;51.654;14.238;2023-04-06T03:24:13;101043.19;;;-1.27;100.00
19210;BME280;9738;51.654;14.238;2023-04-06T03:26:40;101050.25;;;-1.29;100.00
19210;BME280;9738;51.654;14.238;2023-04-06T03:29:06;101048.53;;;-1.30;100.00
19210;BME280;9738;51.654;14.238;2023-04-06T03:31:31;101049.56;;;-1.34;100.00
19210;BME280;9738;51.654;14.238;2023-04-06T03:33:58;101052.31;;;-1.37;100.00
19210;BME280;9738;51.654;14.238;2023-04-06T03:36:24;101051.53;;;-1.39;100.00
19210;BME280;9738;51.654;14.238;2023-04-06T03:38:51;101053.34;;;-1.41;100.00
19210;BME280;9738;51.654;14.238;2023-04-06T03:41:19;101058.72;;;-1.44;100.00
19210;BME280;9738;51.654;14.238;2023-04-06T03:43:45;101057.03;;;-1.45;100.00
19210;BME280;9738;51.654;14.238;2023-04-06T03:46:11;101059.81;;;-1.50;100.00
19210;BME280;9738;51.654;14.238;2023-04-06T03:48:37;101063.44;;;-1.54;100.00
19210;BME280;9738;51.654;14.238;2023-04-06T03:51:03;101064.50;;;-1.58;100.00
19210;BME280;9738;51.654;14.238;2023-04-06T03:53:29;101069.06;;;-1.63;100.00
19210;BME280;9738;51.654;14.238;2023-04-06T03:55:55;101074.47;;;-1.68;100.00
19210;BME280;9738;51.654;14.238;2023-04-06T03:58:21;101074.59;;;-1.71;100.00
19210;BME280;9738;51.654;14.238;2023-04-06T04:00:47;101073.75;;;-1.71;100.00
19210;BME280;9738;51.654;14.238;2023-04-06T04:03:13;101074.63;;;-1.72;100.00
19210;BME280;9738;51.654;14.238;2023-04-06T04:05:39;101073.00;;;-1.75;100.00
19210;BME280;9738;51.654;14.238;2023-04-06T04:08:04;101073.16;;;-1.79;100.00
19210;BME280;9738;51.654;14.238;2023-04-06T04:10:31;101077.38;;;-1.75;100.00
19210;BME280;9738;51.654;14.238;2023-04-06T04:12:57;101071.06;;;-1.70;100.00
19210;BME280;9738;51.654;14.238;2023-04-06T04:15:23;101077.88;;;-1.66;100.00
19210;BME280;9738;51.654;14.238;2023-04-06T04:17:49;101082.16;;;-1.63;100.00
19210;BME280;9738;51.654;14.238;2023-04-06T04:20:16;101073.38;;;-1.62;100.00
19210;BME280;9738;51.654;14.238;2023-04-06T04:22:42;101081.16;;;-1.60;100.00
19210;BME280;9738;51.654;14.238;2023-04-06T04:25:09;101077.63;;;-1.59;100.00
19210;BME280;9738;51.654;14.238;2023-04-06T04:27:35;101079.22;;;-1.55;100.00
19210;BME280;9738;51.654;14.238;2023-04-06T04:30:01;101075.63;;;-1.53;100.00
19210;BME280;9738;51.654;14.238;2023-04-06T04:32:28;101079.13;;;-1.52;100.00
19210;BME280;9738;51.654;14.238;2023-04-06T04:34:54;101084.38;;;-1.52;100.00
19210;BME280;9738;51.654;14.238;2023-04-06T04:37:19;101079.47;;;-1.61;100.00
19210;BME280;9738;51.654;14.238;2023-04-06T04:39:46;101085.84;;;-1.69;100.00
19210;BME280;9738;51.654;14.238;2023-04-06T04:42:12;101083.53;;;-1.76;100.00
19210;BME280;9738;51.654;14.238;2023-04-06T04:44:37;101081.00;;;-1.79;100.00
19210;BME280;9738;51.654;14.238;2023-04-06T04:47:04;101078.44;;;-1.81;100.00
19210;BME280;9738;51.654;14.238;2023-04-06T04:49:30;101079.44;;;-1.83;100.00
19210;BME280;9738;51.654;14.238;2023-04-06T04:51:56;101084.75;;;-1.86;100.00
19210;BME280;9738;51.654;14.238;2023-04-06T04:54:22;101081.47;;;-1.92;100.00
19210;BME280;9738;51.654;14.238;2023-04-06T04:56:48;101085.84;;;-1.92;100.00
19210;BME280;9738;51.654;14.238;2023-04-06T04:59:14;101084.19;;;-1.95;100.00
19210;BME280;9738;51.654;14.238;2023-04-06T05:01:40;101080.72;;;-1.95;100.00
19210;BME280;9738;51.654;14.238;2023-04-06T05:04:06;101082.44;;;-1.94;100.00
19210;BME280;9738;51.654;14.238;2023-04-06T05:06:32;101074.72;;;-1.97;100.00
19210;BME280;9738;51.654;14.238;2023-04-06T05:08:58;101085.06;;;-1.94;100.00
19210;BME280;9738;51.654;14.238;2023-04-06T05:11:24;101085.06;;;-1.94;100.00
19210;BME280;9738;51.654;14.238;2023-04-06T05:13:50;101082.44;;;-1.94;100.00
19210;BME280;9738;51.654;14.238;2023-04-06T05:16:17;101083.28;;;-1.94;100.00
19210;BME280;9738;51.654;14.238;2023-04-06T05:18:43;101085.00;;;-1.93;100.00
19210;BME280;9738;51.654;14.238;2023-04-06T05:21:10;101087.53;;;-1.91;100.00
19210;BME280;9738;51.654;14.238;2023-04-06T05:23:37;101083.19;;;-1.91;100.00
19210;BME280;9738;51.654;14.238;2023-04-06T05:26:02;101085.84;;;-1.92;100.00
19210;BME280;9738;51.654;14.238;2023-04-06T05:28:29;101086.59;;;-1.88;100.00
19210;BME280;9738;51.654;14.238;2023-04-06T05:30:55;101082.84;;;-1.81;100.00
19210;BME280;9738;51.654;14.238;2023-04-06T05:33:24;101088.31;;;-1.64;100.00
19210;BME280;9738;51.654;14.238;2023-04-06T05:35:50;101092.16;;;-1.51;100.00
19210;BME280;9738;51.654;14.238;2023-04-06T05:38:16;101088.31;;;-1.42;100.00
19210;BME280;9738;51.654;14.238;2023-04-06T05:40:42;101090.38;;;-1.27;100.00
19210;BME280;9738;51.654;14.238;2023-04-06T05:43:08;101084.63;;;-1.15;100.00
19210;BME280;9738;51.654;14.238;2023-04-06T05:45:34;101086.88;;;-1.05;100.00
19210;BME280;9738;51.654;14.238;2023-04-06T05:48:01;101084.63;;;-0.93;100.00
19210;BME280;9738;51.654;14.238;2023-04-06T05:50:27;101091.66;;;-0.73;100.00
19210;BME280;9738;51.654;14.238;2023-04-06T05:52:54;101083.81;;;-0.52;100.00
19210;BME280;9738;51.654;14.238;2023-04-06T05:55:20;101094.84;;;-0.24;100.00
19210;BME280;9738;51.654;14.238;2023-04-06T05:57:46;101088.31;;;0.05;100.00
19210;BME280;9738;51.654;14.238;2023-04-06T06:00:12;101094.72;;;0.37;100.00
19210;BME280;9738;51.654;14.238;2023-04-06T06:02:38;101091.16;;;0.57;100.00
19210;BME280;9738;51.654;14.238;2023-04-06T06:05:05;101094.28;;;0.84;100.00
19210;BME280;9738;51.654;14.238;2023-04-06T06:07:31;101094.53;;;1.16;100.00
19210;BME280;9738;51.654;14.238;2023-04-06T06:09:58;101100.28;;;1.41;100.00
19210;BME280;9738;51.654;14.238;2023-04-06T06:12:23;101094.75;;;1.63;100.00
19210;BME280;9738;51.654;14.238;2023-04-06T06:14:50;101098.25;;;1.81;100.00
19210;BME280;9738;51.654;14.238;2023-04-06T06:17:15;101102.97;;;1.92;100.00
19210;BME280;9738;51.654;14.238;2023-04-06T06:19:41;101100.28;;;2.09;100.00
19210;BME280;9738;51.654;14.238;2023-04-06T06:22:07;101103.16;;;2.37;100.00
19210;BME280;9738;51.654;14.238;2023-04-06T06:24:33;101099.09;;;2.63;100.00
19210;BME280;9738;51.654;14.238;2023-04-06T06:26:59;101099.59;;;2.86;100.00
19210;BME280;9738;51.654;14.238;2023-04-06T06:29:25;101103.78;;;3.06;100.00
19210;BME280;9738;51.654;14.238;2023-04-06T06:31:51;101104.13;;;3.30;100.00
19210;BME280;9738;51.654;14.238;2023-04-06T06:34:16;101099.19;;;3.39;100.00
19210;BME280;9738;51.654;14.238;2023-04-06T06:36:43;101096.19;;;3.45;100.00
19210;BME280;9738;51.654;14.238;2023-04-06T06:39:08;101104.75;;;3.49;100.00
19210;BME280;9738;51.654;14.238;2023-04-06T06:41:34;101100.06;;;3.54;100.00
19210;BME280;9738;51.654;14.238;2023-04-06T06:44:01;101107.06;;;3.55;100.00
19210;BME280;9738;51.654;14.238;2023-04-06T06:46:27;101107.28;;;3.66;100.00
19210;BME280;9738;51.654;14.238;2023-04-06T06:48:53;101109.56;;;3.72;100.00
19210;BME280;9738;51.654;14.238;2023-04-06T06:51:19;101104.50;;;3.84;100.00
19210;BME280;9738;51.654;14.238;2023-04-06T06:53:45;101109.78;;;3.84;100.00
19210;BME280;9738;51.654;14.238;2023-04-06T06:56:11;101113.00;;;3.89;100.00
19210;BME280;9738;51.654;14.238;2023-04-06T06:58:38;101107.13;;;3.84;100.00
19210;BME280;9738;51.654;14.238;2023-04-06T07:01:04;101105.44;;;3.83;100.00
19210;BME280;9738;51.654;14.238;2023-04-06T07:03:30;101111.09;;;3.91;100.00
19210;BME280;9738;51.654;14.238;2023-04-06T07:05:57;101100.63;;;4.03;100.00
19210;BME280;9738;51.654;14.238;2023-04-06T07:08:23;101100.91;;;4.13;100.00
19210;BME280;9738;51.654;14.238;2023-04-06T07:10:51;101104.69;;;4.38;100.00
19210;BME280;9738;51.654;14.238;2023-04-06T07:13:22;101108.16;;;4.67;100.00
19210;BME280;9738;51.654;14.238;2023-04-06T07:15:49;101112.78;;;4.77;100.00
19210;BME280;9738;51.654;14.238;2023-04-06T07:18:16;101118.22;;;4.88;100.00
19210;BME280;9738;51.654;14.238;2023-04-06T07:20:42;101112.91;;;5.03;100.00
19210;BME280;9738;51.654;14.238;2023-04-06T07:23:08;101110.09;;;5.19;100.00
19210;BME280;9738;51.654;14.238;2023-04-06T07:25:35;101107.25;;;5.49;100.00
19210;BME280;9738;51.654;14.238;2023-04-06T07:28:04;101114.47;;;5.72;100.00
19210;BME280;9738;51.654;14.238;2023-04-06T07:30:30;101112.38;;;5.90;100.00
19210;BME280;9738;51.654;14.238;2023-04-06T07:32:56;101108.09;;;6.14;100.00
19210;BME280;9738;51.654;14.238;2023-04-06T07:35:24;101112.22;;;6.31;100.00
19210;BME280;9738;51.654;14.238;2023-04-06T07:37:52;101115.16;;;6.52;78.97
19210;BME280;9738;51.654;14.238;2023-04-06T07:40:18;101113.97;;;6.69;73.87
19210;BME280;9738;51.654;14.238;2023-04-06T07:42:45;101119.63;;;7.01;74.55
19210;BME280;9738;51.654;14.238;2023-04-06T07:45:11;101103.84;;;7.11;71.45
19210;BME280;9738;51.654;14.238;2023-04-06T07:47:37;101105.84;;;7.20;72.93
19210;BME280;9738;51.654;14.238;2023-04-06T07:50:04;101112.53;;;7.37;72.61
19210;BME280;9738;51.654;14.238;2023-04-06T07:52:30;101103.72;;;7.71;72.07
19210;BME280;9738;51.654;14.238;2023-04-06T07:54:58;101108.50;;;8.01;70.87
19210;BME280;9738;51.654;14.238;2023-04-06T07:57:24;101110.69;;;8.19;68.57
19210;BME280;9738;51.654;14.238;2023-04-06T07:59:50;101111.06;;;8.25;67.87
19210;BME280;9738;51.654;14.238;2023-04-06T08:02:16;101117.16;;;8.72;65.34
19210;BME280;9738;51.654;14.238;2023-04-06T08:04:43;101103.66;;;8.96;63.72
19210;BME280;9738;51.654;14.238;2023-04-06T08:07:09;101115.34;;;8.73;60.03
19210;BME280;9738;51.654;14.238;2023-04-06T08:09:34;101117.16;;;8.50;61.98
19210;BME280;9738;51.654;14.238;2023-04-06T08:12:01;101108.91;;;8.30;60.61
19210;BME280;9738;51.654;14.238;2023-04-06T08:14:26;101105.03;;;8.34;59.73
19210;BME280;9738;51.654;14.238;2023-04-06T08:16:52;101114.16;;;8.65;59.63
19210;BME280;9738;51.654;14.238;2023-04-06T08:19:19;101103.63;;;9.07;60.96
19210;BME280;9738;51.654;14.238;2023-04-06T08:21:45;101108.25;;;9.16;59.59
19210;BME280;9738;51.654;14.238;2023-04-06T08:24:12;101102.97;;;9.58;59.75
19210;BME280;9738;51.654;14.238;2023-04-06T08:26:38;101104.28;;;9.85;56.78
19210;BME280;9738;51.654;14.238;2023-04-06T08:29:04;101105.69;;;10.31;55.56
19210;BME280;9738;51.654;14.238;2023-04-06T08:31:33;101112.75;;;10.32;51.36
19210;BME280;9738;51.654;14.238;2023-04-06T08:34:00;101107.94;;;10.25;53.13
19210;BME280;9738;51.654;14.238;2023-04-06T08:36:26;101104.84;;;10.61;53.13
19210;BME280;9738;51.654;14.238;2023-04-06T08:38:52;101103.34;;;10.37;48.36
19210;BME280;9738;51.654;14.238;2023-04-06T08:41:18;101102.41;;;10.48;51.13
19210;BME280;9738;51.654;14.238;2023-04-06T08:43:57;101108.25;;;10.63;52.39
19210;BME280;9738;51.654;14.238;2023-04-06T08:46:25;101098.03;;;10.87;49.88
19210;BME280;9738;51.654;14.238;2023-04-06T08:48:58;101101.56;;;10.47;46.47
19210;BME280;9738;51.654;14.238;2023-04-06T08:51:25;101101.38;;;10.79;48.11
19210;BME280;9738;51.654;14.238;2023-04-06T08:53:56;101094.44;;;11.17;47.34
19210;BME280;9738;51.654;14.238;2023-04-06T08:56:23;101084.75;;;10.66;42.77
19210;BME280;9738;51.654;14.238;2023-04-06T08:58:52;101092.88;;;10.55;43.52
19210;BME280;9738;51.654;14.238;2023-04-06T09:01:21;101090.22;;;10.24;44.65
19210;BME280;9738;51.654;14.238;2023-04-06T09:03:48;101089.53;;;10.63;47.50
19210;BME280;9738;51.654;14.238;2023-04-06T09:06:15;101084.03;;;11.14;47.51
19210;BME280;9738;51.654;14.238;2023-04-06T09:08:42;101086.19;;;10.70;43.44
19210;BME280;9738;51.654;14.238;2023-04-06T09:11:08;101077.44;;;10.68;46.64
19210;BME280;9738;51.654;14.238;2023-04-06T09:13:48;101081.09;;;10.27;43.82
19210;BME280;9738;51.654;14.238;2023-04-06T09:16:15;101081.31;;;10.45;46.42
19210;BME280;9738;51.654;14.238;2023-04-06T09:18:41;101081.72;;;10.90;45.12
19210;BME280;9738;51.654;14.238;2023-04-06T09:21:08;101083.03;;;11.34;44.78
19210;BME280;9738;51.654;14.238;2023-04-06T09:23:35;101086.72;;;10.64;41.83
19210;BME280;9738;51.654;14.238;2023-04-06T09:26:12;101074.63;;;10.60;44.86
19210;BME280;9738;51.654;14.238;2023-04-06T09:28:49;101084.75;;;10.66;44.31
19210;BME280;9738;51.654;14.238;2023-04-06T09:31:20;101074.91;;;10.67;43.86
19210;BME280;9738;51.654;14.238;2023-04-06T09:33:47;101071.47;;;10.95;43.78
19210;BME280;9738;51.654;14.238;2023-04-06T09:36:13;101066.72;;;11.47;43.30
19210;BME280;9738;51.654;14.238;2023-04-06T09:38:55;101072.47;;;11.91;41.06
19210;BME280;9738;51.654;14.238;2023-04-06T09:41:31;101069.31;;;11.96;41.00
19210;BME280;9738;51.654;14.238;2023-04-06T09:46:31;101073.09;;;10.67;42.93
19210;BME280;9738;51.654;14.238;2023-04-06T09:49:02;101062.75;;;11.03;42.77
19210;BME280;9738;51.654;14.238;2023-04-06T09:51:31;101067.00;;;11.54;43.52
19210;BME280;9738;51.654;14.238;2023-04-06T09:53:57;101064.72;;;11.78;41.65
19210;BME280;9738;51.654;14.238;2023-04-06T09:56:34;101057.59;;;12.16;43.61
19210;BME280;9738;51.654;14.238;2023-04-06T09:59:08;101058.41;;;12.54;42.62
19210;BME280;9738;51.654;14.238;2023-04-06T10:01:36;101054.13;;;12.88;40.92
19210;BME280;9738;51.654;14.238;2023-04-06T10:07:04;101042.13;;;13.28;39.19
19210;BME280;9738;51.654;14.238;2023-04-06T10:09:31;101038.75;;;13.44;36.41
19210;BME280;9738;51.654;14.238;2023-04-06T10:12:03;101044.78;;;13.64;35.59
19210;BME280;9738;51.654;14.238;2023-04-06T10:14:32;101046.94;;;13.86;36.17
19210;BME280;9738;51.654;14.238;2023-04-06T10:16:58;101044.88;;;13.80;34.77
19210;BME280;9738;51.654;14.238;2023-04-06T10:19:29;101041.47;;;13.70;35.91
19210;BME280;9738;51.654;14.238;2023-04-06T10:21:59;101035.34;;;13.60;36.00
19210;BME280;9738;51.654;14.238;2023-04-06T10:24:25;101036.34;;;13.59;34.91
19210;BME280;9738;51.654;14.238;2023-04-06T10:27:01;101028.44;;;13.75;34.50
19210;BME280;9738;51.654;14.238;2023-04-06T10:29:31;101040.44;;;13.89;32.68
19210;BME280;9738;51.654;14.238;2023-04-06T10:32:05;101030.41;;;13.73;33.30
19210;BME280;9738;51.654;14.238;2023-04-06T10:34:35;101030.41;;;13.99;31.90
19210;BME280;9738;51.654;14.238;2023-04-06T10:37:12;101032.31;;;14.06;31.78
19210;BME280;9738;51.654;14.238;2023-04-06T10:39:52;101027.63;;;14.09;30.86
19210;BME280;9738;51.654;14.238;2023-04-06T10:42:24;101025.31;;;14.22;30.98
19210;BME280;9738;51.654;14.238;2023-04-06T10:44:51;101035.03;;;14.15;29.45
19210;BME280;9738;51.654;14.238;2023-04-06T10:47:17;101020.72;;;14.06;29.46
19210;BME280;9738;51.654;14.238;2023-04-06T10:49:43;101030.09;;;14.36;29.99
19210;BME280;9738;51.654;14.238;2023-04-06T10:52:09;101026.16;;;14.56;30.32
19210;BME280;9738;51.654;14.238;2023-04-06T10:54:41;101022.81;;;14.63;30.04
19210;BME280;9738;51.654;14.238;2023-04-06T10:57:08;101014.47;;;14.74;30.67
19210;BME280;9738;51.654;14.238;2023-04-06T10:59:34;101011.97;;;14.88;29.48
19210;BME280;9738;51.654;14.238;2023-04-06T11:02:00;101007.75;;;14.86;28.96
19210;BME280;9738;51.654;14.238;2023-04-06T11:04:26;101021.97;;;14.20;28.52
19210;BME280;9738;51.654;14.238;2023-04-06T11:06:52;101024.91;;;13.74;30.31
19210;BME280;9738;51.654;14.238;2023-04-06T11:09:29;101017.13;;;13.45;32.30
19210;BME280;9738;51.654;14.238;2023-04-06T11:11:57;101015.66;;;13.15;32.28
19210;BME280;9738;51.654;14.238;2023-04-06T11:14:23;101010.50;;;12.68;32.06
19210;BME280;9738;51.654;14.238;2023-04-06T11:16:49;101018.03;;;12.37;33.93
19210;BME280;9738;51.654;14.238;2023-04-06T11:19:16;101015.72;;;12.15;33.67
19210;BME280;9738;51.654;14.238;2023-04-06T11:21:44;101014.25;;;12.03;34.23
19210;BME280;9738;51.654;14.238;2023-04-06T11:24:21;101010.31;;;11.87;35.19
19210;BME280;9738;51.654;14.238;2023-04-06T11:26:52;101010.19;;;11.70;34.68
19210;BME280;9738;51.654;14.238;2023-04-06T11:29:25;101020.94;;;11.60;34.67
19210;BME280;9738;51.654;14.238;2023-04-06T11:31:54;101005.47;;;11.54;34.94
19210;BME280;9738;51.654;14.238;2023-04-06T11:34:24;101006.88;;;11.48;34.24
19210;BME280;9738;51.654;14.238;2023-04-06T11:36:55;100999.59;;;11.21;34.90
19210;BME280;9738;51.654;14.238;2023-04-06T11:39:24;100994.22;;;11.12;35.97
19210;BME280;9738;51.654;14.238;2023-04-06T11:41:53;100993.81;;;11.06;35.80
19210;BME280;9738;51.654;14.238;2023-04-06T11:47:03;100999.16;;;11.06;35.45
19210;BME280;9738;51.654;14.238;2023-04-06T11:49:30;100992.00;;;11.07;34.93
19210;BME280;9738;51.654;14.238;2023-04-06T11:51:57;101000.25;;;10.75;33.40
19210;BME280;9738;51.654;14.238;2023-04-06T11:54:37;100998.63;;;10.34;34.74
19210;BME280;9738;51.654;14.238;2023-04-06T11:57:04;100996.00;;;10.43;36.50
19210;BME280;9738;51.654;14.238;2023-04-06T11:59:31;100997.16;;;10.60;37.59
19210;BME280;9738;51.654;14.238;2023-04-06T12:01:58;100987.47;;;10.69;36.23
19210;BME280;9738;51.654;14.238;2023-04-06T12:04:24;100988.59;;;10.76;35.33
19210;BME280;9738;51.654;14.238;2023-04-06T12:06:50;100987.47;;;10.78;36.25
19210;BME280;9738;51.654;14.238;2023-04-06T12:09:16;100982.00;;;10.70;34.60
19210;BME280;9738;51.654;14.238;2023-04-06T12:11:43;100983.69;;;10.71;37.21
19210;BME280;9738;51.654;14.238;2023-04-06T12:14:10;100983.25;;;10.86;35.70
19210;BME280;9738;51.654;14.238;2023-04-06T12:16:35;100979.31;;;10.80;35.56
19210;BME280;9738;51.654;14.238;2023-04-06T12:19:02;100977.34;;;10.72;35.87
19210;BME280;9738;51.654;14.238;2023-04-06T12:21:30;100975.53;;;10.82;36.23
19210;BME280;9738;51.654;14.238;2023-04-06T12:23:59;100961.75;;;10.97;36.97
19210;BME280;9738;51.654;14.238;2023-04-06T12:26:26;100969.75;;;10.97;39.13
19210;BME280;9738;51.654;14.238;2023-04-06T12:28:53;100972.56;;;10.86;38.34
19210;BME280;9738;51.654;14.238;2023-04-06T12:31:20;100967.53;;;10.82;38.50
19210;BME280;9738;51.654;14.238;2023-04-06T12:33:48;100971.44;;;10.78;39.54
19210;BME280;9738;51.654;14.238;2023-04-06T12:36:16;100968.06;;;10.57;38.12
19210;BME280;9738;51.654;14.238;2023-04-06T12:38:45;100971.06;;;10.23;37.89
19210;BME280;9738;51.654;14.238;2023-04-06T12:41:12;100973.38;;;10.38;38.71
19210;BME280;9738;51.654;14.238;2023-04-06T12:43:40;100968.31;;;10.44;38.87
19210;BME280;9738;51.654;14.238;2023-04-06T12:46:06;100969.59;;;10.50;39.16
19210;BME280;9738;51.654;14.238;2023-04-06T12:48:32;100963.00;;;10.64;36.93
19210;BME280;9738;51.654;14.238;2023-04-06T12:51:03;100956.53;;;11.05;37.55
19210;BME280;9738;51.654;14.238;2023-04-06T12:53:30;100957.72;;;11.59;35.25